createdAt,value
2019-06-10T00:04:18.373Z,10.90
2019-06-10T00:09:23.881Z,8.77
2019-06-10T00:14:31.359Z,9.70
2019-06-10T00:19:36.396Z,7.93
2019-06-10T00:24:41.732Z,9.70
2019-06-10T00:29:47.011Z,8.63
2019-06-10T00:34:52.264Z,9.87
2019-06-10T00:39:57.222Z,8.40
2019-06-10T00:45:05.625Z,9.80
2019-06-10T00:50:14.292Z,8.63
2019-06-10T00:55:17.391Z,10.07
2019-06-10T01:00:25.520Z,8.67
2019-06-10T01:05:31.358Z,11.40
2019-06-10T01:10:38.124Z,9.43
2019-06-10T01:15:44.963Z,11.80
2019-06-10T01:20:51.922Z,9.03
2019-06-10T01:25:57.386Z,11.63
2019-06-10T01:31:04.107Z,9.87
2019-06-10T01:36:12.784Z,11.07
2019-06-10T01:41:21.134Z,8.40
2019-06-10T01:46:27.262Z,10.03
2019-06-10T01:51:34.043Z,9.07
2019-06-10T01:56:40.856Z,10.27
2019-06-10T02:01:55.206Z,9.17
2019-06-10T02:07:01.316Z,10.23
2019-06-10T02:12:06.854Z,9.23
2019-06-10T02:17:14.455Z,9.73
2019-06-10T02:22:20.574Z,10.80
2019-06-10T02:27:26.425Z,8.47
2019-06-10T02:32:37.466Z,10.00
2019-06-10T02:37:44.446Z,9.97
2019-06-10T02:42:49.682Z,8.90
2019-06-10T02:47:54.914Z,9.43
2019-06-10T02:52:59.860Z,10.63
2019-06-10T02:58:05.229Z,9.90
2019-06-10T03:03:13.504Z,9.70
2019-06-10T03:08:18.496Z,8.47
2019-06-10T03:13:25.591Z,9.47
2019-06-10T03:18:32.905Z,7.87
2019-06-10T03:23:37.951Z,10.00
2019-06-10T03:28:43.324Z,8.43
2019-06-10T03:33:48.294Z,9.63
2019-06-10T03:38:53.874Z,9.63
2019-06-10T03:43:59.388Z,7.53
2019-06-10T03:49:04.748Z,9.03
2019-06-10T03:54:10.099Z,8.90
2019-06-10T03:59:15.417Z,9.13
2019-06-10T04:04:24.947Z,9.53
2019-06-10T04:09:29.688Z,6.93
2019-06-10T04:14:35.036Z,7.90
2019-06-10T04:19:42.108Z,8.13
2019-06-10T04:24:47.148Z,7.50
2019-06-10T04:29:52.558Z,8.50
2019-06-10T04:34:57.928Z,6.67
2019-06-10T04:40:03.269Z,6.83
2019-06-10T04:45:08.624Z,5.70
2019-06-10T04:50:24.789Z,6.53
2019-06-10T04:55:23.191Z,7.70
2019-06-10T05:00:29.148Z,5.27
2019-06-10T05:05:35.114Z,6.57
2019-06-10T05:10:42.286Z,5.00
2019-06-10T05:15:47.215Z,4.83
2019-06-10T05:20:58.420Z,4.80
2019-06-10T05:25:59.808Z,4.70
2019-06-10T05:31:05.057Z,4.53
2019-06-10T05:36:12.838Z,4.70
2019-06-10T05:41:17.212Z,4.50
2019-06-10T05:46:24.305Z,3.60
2019-06-10T05:51:29.218Z,4.47
2019-06-10T05:56:35.649Z,3.87
2019-06-10T06:01:43.147Z,3.70
2019-06-10T06:06:47.970Z,4.30
2019-06-10T06:11:53.362Z,3.90
2019-06-10T06:16:58.310Z,4.57
2019-06-10T06:22:03.864Z,3.40
2019-06-10T06:27:09.230Z,4.50
2019-06-10T06:32:14.327Z,3.23
2019-06-10T06:37:19.558Z,3.83
2019-06-10T06:42:24.643Z,3.60
2019-06-10T06:47:32.797Z,3.70
2019-06-10T06:53:13.970Z,3.60
2019-06-10T06:57:43.742Z,3.87
2019-06-10T07:02:52.809Z,3.90
2019-06-10T07:07:57.605Z,3.67
2019-06-10T07:13:07.809Z,3.37
2019-06-10T07:18:14.098Z,3.10
2019-06-10T07:23:22.375Z,2.70
2019-06-10T07:28:27.048Z,2.83
2019-06-10T07:33:34.770Z,2.93
2019-06-10T07:38:41.006Z,2.80
2019-06-10T07:43:49.522Z,3.40
2019-06-10T07:48:56.362Z,3.37
2019-06-10T07:54:00.078Z,2.43
2019-06-10T07:59:05.084Z,3.00
2019-06-10T08:04:12.064Z,2.53
2019-06-10T08:09:17.275Z,2.60
2019-06-10T08:14:22.675Z,2.87
2019-06-10T08:19:34.941Z,2.93
2019-06-10T08:24:35.304Z,5.08
2019-06-10T08:29:41.687Z,2.90
2019-06-10T08:34:48.208Z,3.02
2019-06-10T08:39:54.123Z,3.15
2019-06-10T08:45:00.142Z,3.47
2019-06-10T08:50:07.308Z,2.92
2019-06-10T08:55:12.722Z,3.17
2019-06-10T09:00:21.927Z,4.35
2019-06-10T09:05:26.206Z,4.40
2019-06-10T09:10:33.791Z,4.42
2019-06-10T09:15:39.136Z,4.28
2019-06-10T09:20:45.899Z,4.47
2019-06-10T09:25:54.481Z,5.20
2019-06-10T09:30:59.118Z,6.03
2019-06-10T09:36:05.794Z,5.78
2019-06-10T09:41:14.227Z,7.33
2019-06-10T09:46:20.415Z,6.83
2019-06-10T09:51:26.416Z,7.40
2019-06-10T09:56:33.121Z,6.65
2019-06-10T10:01:38.410Z,7.08
2019-06-10T10:06:47.778Z,7.60
2019-06-10T10:11:55.068Z,6.87
2019-06-10T10:17:00.451Z,6.30
2019-06-10T10:22:06.183Z,7.53
2019-06-10T10:27:13.481Z,6.72
2019-06-10T10:32:18.358Z,5.70
2019-06-10T10:37:23.775Z,6.87
2019-06-10T10:42:41.644Z,6.17
2019-06-10T10:47:35.740Z,6.78
2019-06-10T10:52:42.870Z,5.90
2019-06-10T10:57:49.302Z,5.62
2019-06-10T11:02:54.868Z,6.10
2019-06-10T11:08:00.312Z,5.47
2019-06-10T11:13:08.510Z,6.35
2019-06-10T11:18:13.990Z,6.78
2019-06-10T11:23:19.388Z,5.53
2019-06-10T11:28:24.949Z,6.75
2019-06-10T11:33:32.661Z,5.62
2019-06-10T11:38:37.101Z,6.20
2019-06-10T11:43:43.067Z,6.75
2019-06-10T11:48:48.990Z,5.80
2019-06-10T11:53:57.208Z,6.30
2019-06-10T11:59:08.945Z,6.22
2019-06-10T12:04:08.628Z,5.80
2019-06-10T12:09:14.016Z,6.45
2019-06-10T12:14:19.189Z,6.53
2019-06-10T12:19:24.349Z,6.50
2019-06-10T12:24:32.868Z,7.22
2019-06-10T12:29:36.669Z,6.70
2019-06-10T12:34:45.902Z,6.92
2019-06-10T12:39:49.268Z,6.90
2019-06-10T12:44:57.053Z,7.62
2019-06-10T12:50:04.138Z,7.62
2019-06-10T12:55:12.398Z,7.50
2019-06-10T13:00:22.746Z,7.20
2019-06-10T13:05:24.670Z,7.40
2019-06-10T13:10:38.950Z,7.40
2019-06-10T13:15:44.469Z,7.95
2019-06-10T13:20:50.148Z,7.77
2019-06-10T13:25:58.692Z,7.47
2019-06-10T13:31:05.923Z,6.90
2019-06-10T13:36:08.773Z,7.30
2019-06-10T13:41:14.144Z,8.13
2019-06-10T13:46:19.563Z,7.75
2019-06-10T13:51:24.885Z,8.00
2019-06-10T13:56:43.260Z,8.58
2019-06-10T14:01:37.611Z,8.73
2019-06-10T14:06:49.816Z,9.15
2019-06-10T14:11:50.148Z,9.65
2019-06-10T14:16:55.429Z,9.38
2019-06-10T14:22:04.872Z,10.08
2019-06-10T14:27:11.475Z,9.95
2019-06-10T14:32:16.848Z,9.88
2019-06-10T14:37:35.006Z,9.53
2019-06-10T14:42:29.026Z,10.45
2019-06-10T14:47:34.634Z,9.68
2019-06-10T14:52:39.899Z,10.25
2019-06-10T14:57:45.329Z,9.50
2019-06-10T15:02:53.814Z,9.13
2019-06-10T15:07:58.490Z,9.73
2019-06-10T15:13:04.012Z,10.53
2019-06-10T15:18:09.416Z,10.90
2019-06-10T15:23:16.949Z,10.60
2019-06-10T15:28:23.570Z,10.68
2019-06-10T15:33:32.378Z,11.12
2019-06-10T15:38:37.209Z,10.55
2019-06-10T15:43:44.089Z,11.65
2019-06-10T15:48:49.640Z,11.43
2019-06-10T15:53:57.170Z,10.53
2019-06-10T15:59:02.932Z,11.18
2019-06-10T16:04:08.651Z,12.43
2019-06-10T16:09:15.358Z,12.37
2019-06-10T16:14:24.930Z,12.73
2019-06-10T16:19:28.634Z,13.30
2019-06-10T16:24:34.275Z,12.98
2019-06-10T16:29:39.754Z,12.60
2019-06-10T16:34:44.871Z,12.85
2019-06-10T16:39:52.420Z,12.95
2019-06-10T16:44:56.932Z,13.75
2019-06-10T16:50:03.172Z,13.48
2019-06-10T16:55:09.534Z,13.18
2019-06-10T17:00:14.724Z,14.07
2019-06-10T17:05:21.249Z,14.35
2019-06-10T17:10:29.532Z,14.85
2019-06-10T17:15:34.443Z,13.90
2019-06-10T17:20:42.776Z,15.08
2019-06-10T17:25:47.174Z,14.45
2019-06-10T17:30:53.432Z,15.30
2019-06-10T17:35:58.905Z,15.15
2019-06-10T17:41:04.340Z,14.85
2019-06-10T17:46:12.305Z,14.73
2019-06-10T17:51:17.399Z,16.67
2019-06-10T17:56:24.990Z,16.30
2019-06-10T18:01:31.067Z,17.23
2019-06-10T18:06:36.927Z,15.53
2019-06-10T18:11:42.871Z,15.05
2019-06-10T18:16:48.431Z,14.75
2019-06-10T18:21:55.340Z,14.75
2019-06-10T18:27:02.285Z,15.20
2019-06-10T18:32:08.019Z,14.98
2019-06-10T18:37:13.479Z,15.28
2019-06-10T18:42:19.511Z,15.78
2019-06-10T18:47:25.086Z,15.15
2019-06-10T18:52:32.662Z,16.17
2019-06-10T18:57:39.227Z,16.80
2019-06-10T19:02:45.083Z,15.83
2019-06-10T19:07:52.772Z,18.52
2019-06-10T19:12:57.885Z,21.02
2019-06-10T19:18:03.425Z,19.77
2019-06-10T19:23:09.361Z,16.87
2019-06-10T19:28:14.564Z,15.35
2019-06-10T19:33:19.962Z,16.17
2019-06-10T19:38:25.804Z,16.65
2019-06-10T19:43:34.619Z,16.35
2019-06-10T19:48:43.329Z,18.07
2019-06-10T19:53:46.762Z,17.17
2019-06-10T19:58:53.042Z,16.48
2019-06-10T20:03:58.751Z,16.42
2019-06-10T20:09:05.900Z,17.33
2019-06-10T20:14:12.822Z,16.52
2019-06-10T20:19:18.492Z,16.85
2019-06-10T20:24:23.667Z,17.00
2019-06-10T20:29:32.817Z,17.13
2019-06-10T20:34:39.077Z,17.70
2019-06-10T20:39:45.969Z,17.90
2019-06-10T20:44:51.494Z,16.70
2019-06-10T20:49:57.399Z,17.60
2019-06-10T20:55:03.284Z,17.00
2019-06-10T21:00:19.664Z,17.77
2019-06-10T21:05:17.638Z,17.10
2019-06-10T21:10:26.038Z,16.73
2019-06-10T21:15:33.198Z,17.37
2019-06-10T21:20:38.213Z,17.33
2019-06-10T21:25:45.840Z,17.13
2019-06-10T21:30:57.688Z,17.07
2019-06-10T21:35:56.978Z,17.17
2019-06-10T21:41:03.339Z,18.00
2019-06-10T21:46:08.901Z,18.10
2019-06-10T21:51:13.976Z,16.57
2019-06-10T21:56:22.299Z,17.07
2019-06-10T22:01:29.283Z,17.60
2019-06-10T22:06:34.526Z,17.70
2019-06-10T22:11:42.147Z,16.50
2019-06-10T22:16:46.713Z,17.77
2019-06-10T22:21:53.656Z,17.53
2019-06-10T22:26:58.648Z,17.20
2019-06-10T22:32:03.836Z,18.23
2019-06-10T22:37:09.364Z,18.07
2019-06-10T22:42:14.540Z,18.00
2019-06-10T22:47:22.317Z,17.87
2019-06-10T22:52:26.735Z,18.33
2019-06-10T22:57:32.435Z,17.83
2019-06-10T23:02:37.647Z,18.97
2019-06-10T23:07:43.396Z,18.20
2019-06-10T23:12:48.926Z,19.70
2019-06-10T23:17:55.718Z,17.73
2019-06-10T23:23:03.064Z,18.27
2019-06-10T23:28:07.864Z,18.80
2019-06-10T23:33:13.165Z,19.17
2019-06-10T23:38:18.373Z,19.07
2019-06-10T23:43:24.124Z,17.37
2019-06-10T23:48:29.153Z,18.07
2019-06-10T23:53:34.445Z,17.80
2019-06-10T23:58:39.656Z,19.73
